Airfield :
LOGIN :

Register | Disclaimer

   EN    FR    IT 

 










Legend :    VFR   Marginal VFR   IFR   Intensive IFR   Very Intensive IFR
Visi :
Ceiling :
>= 8 km
>= 3000ft
5 to 8 km
1000 to 3000 ft
1500m to 5 km
500 to 1000 ft
800 to 1500m
200 to 500 ft
< 800m
< 200 ft
Symbols :   Thunderstorms  Fog  Heavy snow  Heavy precipitations  Wind > 20 kt
SIGMETs :     Misc.  Thunderstorms  Icing  Turbulence  Mountain Waves  Volcanic Ashes






- Airport Elevation : 776 ft
- IATA code : RMS


ETAR - Ramstein Air Base

CURRENT METAR :
  • 100456Z 23005KT 9999 FEW065 BKN085 17/11 A2971 RMK AO2A RAE02 SLP055 P0000 T01730113 FZRANO $

EXPIRED METARs :
  • 100402Z AUTO 20004KT 9999 SCT047 BKN060 17/13 A2970 RMK AO2 RAE02 SLP050 FZRANO $
  • 100356Z AUTO 20004KT 9999 -RA SCT047 SCT060 18/12 A2969 RMK AO2 RAB37 SLP047 P0000 T01770119 FZRANO $
  • 100337Z AUTO 22010G20KT 9999 -RA SCT100 19/11 A2969 RMK AO2 RAB37 PRESRR SLP046 FZRANO $
  • 100256Z AUTO 24003KT 9999 BKN100 17/11 A2962 RMK AO2 SLP023 T01730113 55015 FZRANO $

TAF AMD TAF ETAR
Valid from the 10 at 03:00 until the 11 at 08:00 UTC


100355Z 1003/1108 21010G20KT 9999 VCSH BKN040 BKN100 WS020/24030KT QNH2968INS
TEMPO 1004/1009 21015G30KT 9000 -SHRA BKN050 520005
BECMG 1009/1010 22015G25KT 9999 VCSH SCT040 BKN060 510003 QNH2971INS
BECMG 1013/1014 24010G15KT 8000 -SHRA FEW020 BKN060 OVC090 QNH2980INS
TEMPO 1017/1021 27010G20KT 9000 BKN020 OVC070 510003
BECMG 1102/1103 27010G20KT 9999 VCSH BKN010 OVC030 510003 QNH2976INS TX21/1011Z TN11/1022Z



MET'MAP, your aeronautical weather chart ! - Copyright ORBIFLY December 2007 - Disclaimer

ORBIFLY MET'MAP TEAM :

Programming & Development : Alexandra Zaïnal
Concept & original design : Baudouin d'Aumeries
Assistance for programming : Marc-Olivier Méhu
Technical & hardware support : Manuel Goepfert

Contact : metmap@orbifly.com




SOURCES & CREDITS :

   NOAA